createdAt,value
2019-05-01T00:00:22.600Z,76.04
2019-05-01T00:03:06.584Z,76.12
2019-05-01T00:05:35.715Z,76.02
2019-05-01T00:08:02.349Z,76.10
2019-05-01T00:10:29.586Z,76.02
2019-05-01T00:12:56.223Z,76.41
2019-05-01T00:15:24.815Z,76.31
2019-05-01T00:17:51.437Z,76.43
2019-05-01T00:20:18.085Z,76.43
2019-05-01T00:22:44.777Z,76.48
2019-05-01T00:25:11.413Z,76.62
2019-05-01T00:27:38.035Z,76.70
2019-05-01T00:30:06.194Z,76.82
2019-05-01T00:32:32.829Z,76.69
2019-05-01T00:34:59.436Z,76.96
2019-05-01T00:37:26.047Z,77.00
2019-05-01T00:39:52.671Z,77.21
2019-05-01T00:42:19.318Z,77.21
2019-05-01T00:44:45.958Z,76.97
2019-05-01T00:47:12.731Z,77.03
2019-05-01T00:49:39.335Z,77.30
2019-05-01T00:52:05.959Z,77.29
2019-05-01T00:54:34.383Z,77.17
2019-05-01T00:57:20.509Z,77.17
2019-05-01T00:59:57.119Z,77.10
2019-05-01T01:02:36.069Z,77.31
2019-05-01T01:05:02.755Z,77.60
2019-05-01T01:07:29.373Z,77.58
2019-05-01T01:09:56.087Z,77.37
2019-05-01T01:12:22.832Z,77.75
2019-05-01T01:14:49.491Z,77.98
2019-05-01T01:17:16.134Z,77.99
2019-05-01T01:19:42.769Z,78.05
2019-05-01T01:22:09.394Z,78.16
2019-05-01T01:24:36.021Z,78.11
2019-05-01T01:27:02.641Z,78.19
2019-05-01T01:29:29.260Z,78.30
2019-05-01T01:31:55.861Z,78.17
2019-05-01T01:34:22.496Z,78.33
2019-05-01T01:36:49.114Z,78.33
2019-05-01T01:39:15.768Z,78.46
2019-05-01T01:41:42.365Z,78.45
2019-05-01T01:44:35.226Z,78.33
2019-05-01T01:47:01.851Z,78.13
2019-05-01T01:49:28.490Z,78.08
2019-05-01T01:51:55.094Z,78.29
2019-05-01T01:54:21.734Z,78.22
2019-05-01T01:56:48.442Z,78.40
2019-05-01T01:59:15.060Z,78.93
2019-05-01T02:02:04.229Z,78.81
2019-05-01T02:05:02.410Z,78.75
2019-05-01T02:07:29.041Z,78.74
2019-05-01T02:09:55.651Z,78.79
2019-05-01T02:12:22.324Z,78.73
2019-05-01T02:14:49.017Z,78.70
2019-05-01T02:17:15.670Z,78.68
2019-05-01T02:19:42.282Z,78.57
2019-05-01T02:22:08.908Z,78.60
2019-05-01T02:24:35.534Z,78.53
2019-05-01T02:27:05.685Z,78.28
2019-05-01T02:29:40.762Z,78.27
2019-05-01T02:32:07.435Z,78.16
2019-05-01T02:34:35.327Z,78.12
2019-05-01T02:37:02.060Z,78.11
2019-05-01T02:39:28.890Z,78.04
2019-05-01T02:41:55.480Z,77.96
2019-05-01T02:44:36.921Z,77.81
2019-05-01T02:47:05.125Z,77.71
2019-05-01T02:49:33.474Z,77.81
2019-05-01T02:52:00.404Z,77.81
2019-05-01T02:54:27.334Z,77.72
2019-05-01T02:56:58.252Z,77.84
2019-05-01T02:59:24.932Z,77.76
2019-05-01T03:01:51.568Z,77.59
2019-05-01T03:04:18.185Z,77.48
2019-05-01T03:06:44.942Z,77.44
2019-05-01T03:09:11.636Z,77.39
2019-05-01T03:11:38.597Z,77.43
2019-05-01T03:14:05.306Z,77.46
2019-05-01T03:16:32.029Z,77.23
2019-05-01T03:18:59.555Z,77.19
2019-05-01T03:21:34.690Z,77.12
2019-05-01T03:24:07.653Z,77.16
2019-05-01T03:26:34.312Z,77.11
2019-05-01T03:29:00.921Z,77.10
2019-05-01T03:31:27.553Z,77.00
2019-05-01T03:33:54.252Z,76.90
2019-05-01T03:36:20.884Z,76.89
2019-05-01T03:38:47.510Z,76.88
2019-05-01T03:41:14.219Z,76.90
2019-05-01T03:43:40.839Z,76.92
2019-05-01T03:46:07.453Z,76.75
2019-05-01T03:48:34.100Z,76.76
2019-05-01T03:51:00.912Z,76.69
2019-05-01T03:53:27.631Z,76.74
2019-05-01T03:55:54.343Z,76.64
2019-05-01T03:58:21.077Z,76.73
2019-05-01T04:00:58.076Z,76.63
2019-05-01T04:03:28.605Z,76.81
2019-05-01T04:05:55.251Z,76.89
2019-05-01T04:08:21.998Z,76.88
2019-05-01T04:10:48.724Z,77.03
2019-05-01T04:13:15.345Z,76.83
2019-05-01T04:15:42.257Z,76.94
2019-05-01T04:18:08.983Z,77.05
2019-05-01T04:20:35.712Z,77.10
2019-05-01T04:23:02.422Z,77.22
2019-05-01T04:25:29.095Z,77.29
2019-05-01T04:27:58.762Z,77.30
2019-05-01T04:30:51.190Z,77.21
2019-05-01T04:33:19.645Z,77.20
2019-05-01T04:35:50.529Z,77.09
2019-05-01T04:38:17.421Z,77.04
2019-05-01T04:40:44.119Z,77.14
2019-05-01T04:43:10.779Z,77.19
2019-05-01T04:45:37.526Z,76.97
2019-05-01T04:48:04.167Z,76.94
2019-05-01T04:50:31.132Z,76.80
2019-05-01T04:52:57.843Z,76.62
2019-05-01T04:55:24.424Z,76.37
2019-05-01T04:57:51.075Z,76.36
2019-05-01T05:00:17.690Z,76.15
2019-05-01T05:03:04.806Z,75.94
2019-05-01T05:05:29.571Z,76.27
2019-05-01T05:07:56.291Z,76.50
2019-05-01T05:10:23.277Z,75.84
2019-05-01T05:13:04.503Z,75.57
2019-05-01T05:15:49.448Z,75.37
2019-05-01T05:18:16.090Z,75.76
2019-05-01T05:20:42.725Z,75.51
2019-05-01T05:23:09.351Z,75.24
2019-05-01T05:25:36.121Z,75.45
2019-05-01T05:28:02.937Z,75.36
2019-05-01T05:30:29.659Z,75.01
2019-05-01T05:32:56.287Z,74.69
2019-05-01T05:35:23.029Z,74.48
2019-05-01T05:38:09.139Z,74.04
2019-05-01T05:40:36.294Z,74.05
2019-05-01T05:43:03.147Z,73.93
2019-05-01T05:45:29.810Z,73.83
2019-05-01T05:47:56.548Z,73.63
2019-05-01T05:50:24.981Z,74.90
2019-05-01T05:52:55.693Z,73.26
2019-05-01T05:55:38.519Z,73.28
2019-05-01T05:58:27.262Z,73.04
2019-05-01T06:01:19.889Z,73.33
2019-05-01T06:04:09.713Z,73.08
2019-05-01T06:06:41.266Z,71.46
2019-05-01T06:09:13.725Z,70.05
2019-05-01T06:12:04.985Z,69.11
2019-05-01T06:14:42.292Z,69.40
2019-05-01T06:17:23.671Z,70.37
2019-05-01T06:19:54.041Z,69.86
2019-05-01T06:22:26.426Z,68.62
2019-05-01T06:24:58.378Z,69.16
2019-05-01T06:27:25.006Z,69.81
2019-05-01T06:29:51.610Z,69.03
2019-05-01T06:32:18.244Z,68.01
2019-05-01T06:34:44.858Z,68.20
2019-05-01T06:37:11.499Z,66.45
2019-05-01T06:39:38.230Z,65.75
2019-05-01T06:42:09.908Z,67.21
2019-05-01T06:44:54.918Z,68.28
2019-05-01T06:47:59.502Z,66.51
2019-05-01T06:50:37.092Z,66.89
2019-05-01T06:53:04.623Z,65.16
2019-05-01T06:55:30.536Z,66.23
2019-05-01T06:57:57.176Z,65.92
2019-05-01T07:00:23.891Z,64.69
2019-05-01T07:02:50.520Z,65.09
2019-05-01T07:05:17.258Z,65.19
2019-05-01T07:07:48.078Z,65.12
2019-05-01T07:10:12.566Z,64.41
2019-05-01T07:12:39.300Z,63.84
2019-05-01T07:15:06.053Z,63.75
2019-05-01T07:17:32.677Z,63.63
2019-05-01T07:20:18.201Z,64.18
2019-05-01T07:22:45.094Z,62.80
2019-05-01T07:25:11.814Z,63.31
2019-05-01T07:27:38.447Z,62.73
2019-05-01T07:30:15.947Z,62.59
2019-05-01T07:32:43.746Z,61.82
2019-05-01T07:35:10.413Z,62.03
2019-05-01T07:37:37.151Z,61.41
2019-05-01T07:40:03.954Z,61.19
2019-05-01T07:42:33.392Z,61.29
2019-05-01T07:45:18.912Z,59.79
2019-05-01T07:47:45.669Z,60.92
2019-05-01T07:50:13.549Z,59.65
2019-05-01T07:52:40.203Z,58.61
2019-05-01T07:55:06.841Z,59.29
2019-05-01T07:57:34.393Z,58.20
2019-05-01T08:00:08.204Z,59.63
2019-05-01T08:02:33.014Z,57.91
2019-05-01T08:04:59.750Z,56.27
2019-05-01T08:07:27.765Z,55.62
2019-05-01T08:09:54.957Z,52.50
2019-05-01T08:12:23.915Z,50.54
2019-05-01T08:14:52.429Z,49.55
2019-05-01T08:20:32.980Z,51.20
2019-05-01T08:22:59.628Z,49.37
2019-05-01T08:25:28.685Z,50.44
2019-05-01T08:28:04.100Z,49.46
2019-05-01T08:30:59.235Z,50.88
2019-05-01T08:33:49.879Z,51.40
2019-05-01T08:36:14.191Z,52.14
2019-05-01T08:38:40.782Z,50.77
2019-05-01T08:41:07.408Z,51.20
2019-05-01T08:43:35.026Z,50.56
2019-05-01T08:46:24.967Z,51.36
2019-05-01T08:48:56.189Z,49.86
2019-05-01T08:51:22.875Z,50.73
2019-05-01T08:53:52.710Z,51.52
2019-05-01T08:56:21.994Z,52.05
2019-05-01T08:58:49.393Z,53.01
2019-05-01T09:01:16.346Z,51.99
2019-05-01T09:03:43.204Z,51.77
2019-05-01T09:06:09.950Z,52.00
2019-05-01T09:08:36.551Z,51.54
2019-05-01T09:11:03.210Z,50.96
2019-05-01T09:13:29.904Z,49.29
2019-05-01T09:15:56.633Z,45.45
2019-05-01T09:18:23.404Z,46.23
2019-05-01T09:20:52.874Z,47.04
2019-05-01T09:23:19.520Z,44.93
2019-05-01T09:25:55.356Z,45.64
2019-05-01T09:28:26.745Z,46.00
2019-05-01T09:31:01.585Z,46.45
2019-05-01T09:33:26.187Z,45.81
2019-05-01T09:35:53.478Z,46.18
2019-05-01T09:38:20.110Z,42.00
2019-05-01T09:40:46.752Z,43.61
2019-05-01T09:43:13.483Z,40.90
2019-05-01T09:45:40.190Z,41.11
2019-05-01T09:48:08.168Z,43.20
2019-05-01T09:50:36.898Z,40.86
2019-05-01T09:53:29.711Z,40.56
2019-05-01T09:56:03.278Z,37.20
2019-05-01T09:58:30.053Z,38.56
2019-05-01T10:00:58.790Z,38.80
2019-05-01T10:03:25.404Z,38.94
2019-05-01T10:05:52.002Z,39.14
2019-05-01T10:08:18.637Z,39.06
2019-05-01T10:10:45.288Z,39.82
2019-05-01T10:13:11.909Z,37.83
2019-05-01T10:15:38.608Z,39.68
2019-05-01T10:18:05.226Z,40.64
2019-05-01T10:20:31.855Z,38.18
2019-05-01T10:22:58.479Z,38.31
2019-05-01T10:25:25.220Z,37.99
2019-05-01T10:27:58.045Z,38.03
2019-05-01T10:30:36.253Z,37.62
2019-05-01T10:33:04.345Z,37.13
2019-05-01T10:35:42.617Z,36.39
2019-05-01T10:38:04.733Z,36.38
2019-05-01T10:40:34.270Z,35.93
2019-05-01T10:43:01.094Z,37.10
2019-05-01T10:45:27.752Z,37.32
2019-05-01T10:47:54.456Z,35.86
2019-05-01T10:50:21.092Z,36.46
2019-05-01T10:52:47.806Z,36.35
2019-05-01T10:55:14.598Z,36.58
2019-05-01T10:57:42.192Z,35.68
2019-05-01T11:00:09.030Z,34.13
2019-05-01T11:02:35.693Z,32.66
2019-05-01T11:05:02.297Z,33.01
2019-05-01T11:07:28.932Z,32.10
2019-05-01T11:09:55.644Z,32.69
2019-05-01T11:12:22.282Z,31.19
2019-05-01T11:14:48.931Z,31.50
2019-05-01T11:17:15.675Z,31.25
2019-05-01T11:19:42.319Z,28.67
2019-05-01T11:22:09.022Z,27.77
2019-05-01T11:24:35.757Z,29.82
2019-05-01T11:27:02.376Z,28.57
2019-05-01T11:29:29.024Z,29.82
2019-05-01T11:32:09.533Z,29.15
2019-05-01T11:35:07.950Z,29.69
2019-05-01T11:37:56.908Z,28.65
2019-05-01T11:40:52.212Z,29.75
2019-05-01T11:43:18.847Z,28.81
2019-05-01T11:45:45.522Z,30.48
2019-05-01T11:48:12.152Z,30.16
2019-05-01T11:50:38.783Z,30.86
2019-05-01T11:53:05.488Z,29.60
2019-05-01T11:55:32.115Z,30.38
2019-05-01T11:57:58.770Z,30.32
2019-05-01T12:00:25.494Z,30.02
2019-05-01T12:02:52.235Z,29.55
2019-05-01T12:05:18.882Z,28.62
2019-05-01T12:07:45.502Z,27.98
2019-05-01T12:10:14.359Z,27.33
2019-05-01T12:12:40.663Z,27.46
2019-05-01T12:15:07.270Z,27.02
2019-05-01T12:17:41.822Z,28.47
2019-05-01T12:20:08.478Z,27.25
2019-05-01T12:22:35.205Z,24.52
2019-05-01T12:25:01.821Z,26.30
2019-05-01T12:27:28.449Z,26.38
2019-05-01T12:29:55.072Z,25.18
2019-05-01T12:32:21.727Z,25.53
2019-05-01T12:34:48.419Z,25.10
2019-05-01T12:37:19.208Z,24.41
2019-05-01T12:39:45.846Z,24.64
2019-05-01T12:42:12.600Z,24.38
2019-05-01T12:44:39.245Z,23.88
2019-05-01T12:47:11.273Z,25.68
2019-05-01T12:49:37.916Z,25.78
2019-05-01T12:52:10.680Z,27.05
2019-05-01T12:54:45.171Z,25.46
2019-05-01T12:57:13.524Z,25.98
2019-05-01T12:59:40.166Z,25.22
2019-05-01T13:02:06.790Z,25.59
2019-05-01T13:04:33.419Z,24.60
2019-05-01T13:07:00.161Z,26.01
2019-05-01T13:09:26.887Z,24.91
2019-05-01T13:11:53.683Z,24.80
2019-05-01T13:14:20.406Z,24.08
2019-05-01T13:16:47.024Z,25.32
2019-05-01T13:19:13.624Z,23.94
2019-05-01T13:21:40.298Z,24.20
2019-05-01T13:24:06.923Z,24.45
2019-05-01T13:26:56.133Z,26.26
2019-05-01T13:29:33.208Z,25.59
2019-05-01T13:32:15.659Z,26.62
2019-05-01T13:34:42.322Z,26.36
2019-05-01T13:37:09.082Z,26.44
2019-05-01T13:39:35.794Z,25.67
2019-05-01T13:42:02.457Z,26.49
2019-05-01T13:44:29.178Z,25.66
2019-05-01T13:46:55.796Z,25.21
2019-05-01T13:49:22.554Z,25.91
2019-05-01T13:51:49.258Z,23.91
2019-05-01T13:54:15.883Z,25.41
2019-05-01T13:56:42.525Z,26.49
2019-05-01T13:59:11.506Z,26.93
2019-05-01T14:01:38.198Z,26.30
2019-05-01T14:04:04.833Z,24.17
2019-05-01T14:06:31.435Z,24.71
2019-05-01T14:08:58.084Z,23.04
2019-05-01T14:11:24.719Z,23.48
2019-05-01T14:13:51.525Z,24.24
2019-05-01T14:16:18.225Z,23.82
2019-05-01T14:18:44.885Z,24.34
2019-05-01T14:21:32.068Z,26.15
2019-05-01T14:24:20.987Z,26.66
2019-05-01T14:26:47.598Z,27.50
2019-05-01T14:29:14.231Z,27.00
2019-05-01T14:31:40.869Z,27.62
2019-05-01T14:34:07.512Z,28.67
2019-05-01T14:36:34.253Z,28.20
2019-05-01T14:39:00.986Z,29.19
2019-05-01T14:41:27.596Z,30.46
2019-05-01T14:43:54.236Z,28.69
2019-05-01T14:46:20.857Z,28.03
2019-05-01T14:48:47.488Z,28.33
2019-05-01T14:51:16.142Z,28.90
2019-05-01T14:53:52.470Z,28.68
2019-05-01T14:56:19.152Z,28.02
2019-05-01T14:58:45.843Z,28.37
2019-05-01T15:01:12.585Z,29.39
2019-05-01T15:03:39.221Z,29.94
2019-05-01T15:06:05.973Z,30.59
2019-05-01T15:08:32.585Z,30.52
2019-05-01T15:10:59.302Z,31.45
2019-05-01T15:13:45.377Z,31.50
2019-05-01T15:16:31.537Z,32.21
2019-05-01T15:19:17.662Z,31.86
2019-05-01T15:21:44.396Z,31.71
2019-05-01T15:24:11.119Z,32.38
2019-05-01T15:26:37.754Z,31.88
2019-05-01T15:29:04.473Z,32.30
2019-05-01T15:31:33.446Z,31.53
2019-05-01T15:34:00.088Z,29.48
2019-05-01T15:36:26.724Z,30.02
2019-05-01T15:38:53.367Z,28.48
2019-05-01T15:41:39.518Z,28.55
2019-05-01T15:44:25.713Z,29.61
2019-05-01T15:46:52.456Z,29.97
2019-05-01T15:49:19.184Z,28.00
2019-05-01T15:51:45.819Z,27.60
2019-05-01T15:54:12.441Z,28.61
2019-05-01T15:56:39.082Z,28.81
2019-05-01T15:59:05.732Z,27.16
2019-05-01T16:01:32.370Z,27.47
2019-05-01T16:03:59.018Z,27.02
2019-05-01T16:06:25.822Z,27.17
2019-05-01T16:08:52.455Z,27.26
2019-05-01T16:11:38.544Z,28.41
2019-05-01T16:14:05.286Z,27.50
2019-05-01T16:16:32.003Z,27.37
2019-05-01T16:18:58.649Z,27.35
2019-05-01T16:21:25.360Z,28.92
2019-05-01T16:23:52.164Z,28.20
2019-05-01T16:26:18.772Z,28.01
2019-05-01T16:28:45.414Z,28.17
2019-05-01T16:31:12.046Z,29.00
2019-05-01T16:33:38.760Z,29.01
2019-05-01T16:36:05.413Z,28.85
2019-05-01T16:41:37.360Z,28.28
2019-05-01T16:44:04.074Z,28.55
2019-05-01T16:46:30.693Z,29.01
2019-05-01T16:48:57.305Z,29.14
2019-05-01T16:51:24.112Z,30.13
2019-05-01T16:53:50.870Z,30.43
2019-05-01T16:56:17.615Z,30.23
2019-05-01T16:58:44.307Z,31.35
2019-05-01T17:01:30.461Z,30.97
2019-05-01T17:10:10.309Z,32.21
2019-05-01T17:12:56.453Z,32.58
2019-05-01T17:15:42.630Z,32.97
2019-05-01T17:20:47.989Z,33.36
2019-05-01T17:23:14.638Z,33.36
2019-05-01T17:25:41.264Z,34.60
2019-05-01T17:28:09.289Z,35.92
2019-05-01T17:30:43.382Z,35.43
2019-05-01T17:33:10.242Z,36.94
2019-05-01T17:35:41.384Z,37.87
2019-05-01T17:38:12.096Z,39.67
2019-05-01T17:40:38.808Z,40.35
2019-05-01T17:43:08.135Z,40.95
2019-05-01T17:45:40.120Z,41.02
2019-05-01T17:48:06.893Z,42.59
2019-05-01T17:50:33.623Z,42.52
2019-05-01T17:53:00.288Z,44.20
2019-05-01T17:55:27.012Z,44.72
2019-05-01T17:57:53.814Z,46.34
2019-05-01T18:00:39.964Z,45.36
2019-05-01T18:03:26.218Z,44.51
2019-05-01T18:06:12.423Z,44.99
2019-05-01T18:08:39.186Z,44.83
2019-05-01T18:11:09.269Z,45.91
2019-05-01T18:13:40.562Z,47.90
2019-05-01T18:16:07.219Z,47.32
2019-05-01T18:18:33.848Z,47.12
2019-05-01T18:21:00.626Z,48.66
2019-05-01T18:23:47.565Z,49.32
2019-05-01T18:26:30.874Z,50.04
2019-05-01T18:29:05.858Z,51.32
2019-05-01T18:31:42.423Z,51.14
2019-05-01T18:34:09.102Z,52.08
2019-05-01T18:39:36.254Z,53.34
2019-05-01T18:42:22.527Z,53.90
2019-05-01T18:44:49.158Z,54.67
2019-05-01T18:47:15.781Z,55.55
2019-05-01T18:49:42.437Z,56.45
2019-05-01T18:55:04.439Z,57.54
2019-05-01T18:57:31.146Z,57.83
2019-05-01T18:59:57.952Z,57.72
2019-05-01T19:02:25.033Z,57.91
2019-05-01T19:04:59.295Z,58.03
2019-05-01T19:13:00.694Z,58.06
2019-05-01T19:15:27.332Z,58.84
2019-05-01T19:17:54.120Z,58.82
2019-05-01T19:20:20.860Z,59.28
2019-05-01T19:22:47.580Z,60.39
2019-05-01T19:25:29.422Z,60.35
2019-05-01T19:27:50.307Z,60.12
2019-05-01T19:30:17.168Z,60.15
2019-05-01T19:32:43.896Z,60.13
2019-05-01T19:35:10.532Z,60.17
2019-05-01T19:37:37.313Z,60.72
2019-05-01T19:40:04.199Z,60.96
2019-05-01T19:42:30.906Z,61.13
2019-05-01T19:44:57.856Z,61.10
2019-05-01T19:47:35.877Z,61.26
2019-05-01T19:50:07.442Z,61.33
2019-05-01T19:52:39.669Z,61.46
2019-05-01T19:55:12.769Z,61.47
2019-05-01T19:57:39.455Z,61.69
2019-05-01T20:03:06.853Z,61.86
2019-05-01T20:05:33.598Z,62.14
2019-05-01T20:08:00.336Z,62.19
2019-05-01T20:10:26.920Z,62.39
2019-05-01T20:12:53.600Z,62.61
2019-05-01T20:15:25.237Z,62.97
2019-05-01T20:17:55.395Z,63.10
2019-05-01T20:20:22.130Z,63.42
2019-05-01T20:22:53.252Z,63.75
2019-05-01T20:25:23.683Z,63.99
2019-05-01T20:27:53.113Z,64.35
2019-05-01T20:30:29.353Z,64.60
2019-05-01T20:32:58.191Z,64.80
2019-05-01T20:35:34.165Z,64.96
2019-05-01T20:38:06.230Z,65.04
2019-05-01T20:40:32.843Z,65.41
2019-05-01T20:43:01.041Z,65.49
2019-05-01T20:45:34.259Z,65.66
2019-05-01T20:48:01.327Z,65.89
2019-05-01T20:50:28.071Z,66.03
2019-05-01T20:52:54.796Z,66.20
2019-05-01T20:58:21.011Z,66.63
2019-05-01T21:06:29.539Z,66.92
2019-05-01T21:09:16.062Z,67.72
2019-05-01T21:14:39.209Z,67.82
2019-05-01T21:17:09.487Z,68.08
2019-05-01T21:19:41.135Z,68.04
2019-05-01T21:22:07.878Z,68.00
2019-05-01T21:24:34.525Z,67.96
2019-05-01T21:27:01.135Z,67.92
2019-05-01T21:29:27.791Z,67.80
2019-05-01T21:31:54.435Z,68.15
2019-05-01T21:34:21.203Z,68.08
2019-05-01T21:40:08.439Z,68.14
2019-05-01T21:42:35.049Z,68.30
2019-05-01T21:45:04.180Z,68.36
2019-05-01T21:47:36.462Z,68.34
2019-05-01T21:53:06.887Z,68.36
2019-05-01T21:55:39.508Z,68.38
2019-05-01T21:58:06.104Z,68.37
2019-05-01T22:03:16.678Z,68.37
2019-05-01T22:05:49.975Z,68.45
2019-05-01T22:08:16.615Z,68.43
2019-05-01T22:10:51.815Z,68.50
2019-05-01T22:19:13.926Z,68.82
2019-05-01T22:22:00.141Z,69.19
2019-05-01T22:24:46.325Z,69.39
2019-05-01T22:32:58.508Z,69.69
2019-05-01T22:35:44.603Z,69.88
2019-05-01T22:38:11.344Z,70.03
2019-05-01T22:41:06.078Z,70.21
2019-05-01T22:48:54.950Z,70.35
2019-05-01T22:54:17.066Z,70.47
2019-05-01T22:56:43.789Z,70.50
2019-05-01T23:04:28.130Z,70.53
2019-05-01T23:06:54.745Z,70.61
2019-05-01T23:12:00.022Z,70.83
2019-05-01T23:22:42.352Z,70.74
2019-05-01T23:25:36.572Z,70.68
2019-05-01T23:28:10.263Z,70.80
2019-05-01T23:30:36.983Z,70.86
2019-05-01T23:33:03.642Z,70.78
2019-05-01T23:35:30.344Z,70.73
2019-05-01T23:37:56.997Z,70.73
2019-05-01T23:40:23.639Z,70.72
2019-05-01T23:42:53.488Z,70.87
2019-05-01T23:45:24.849Z,70.83
2019-05-01T23:47:51.465Z,70.76
2019-05-01T23:50:18.136Z,70.66
2019-05-01T23:52:44.835Z,70.61
2019-05-01T23:55:11.449Z,70.42
2019-05-01T23:57:38.084Z,70.62
